Terminal Aerodrome Forecast
Issued by NWS Blacksburg, VA

Current Version | Previous Version | Graphics & Text | Print | Product List | Glossary On
Versions: 1 2 3 4 5 6 7 8 9 10 11 12 13 14 15 16 17 18 19 20 21 22
000
FTUS41 KRNK 250905 AAE
TAFBLF
TAF AMD
KBLF 250905Z 2509/2606 00000KT 2SM BR OVC003
     FM251000 VRB04KT 1SM -RA BR OVC003
     FM251200 29005KT 5SM BR OVC008
      TEMPO 2512/2514 2SM -SHRA BR OVC015
     FM251500 30007KT P6SM VCSH OVC007=

USA.gov is the U.S. government's official web portal to all federal, state and local government web resources and services.